sensor_id;sensor_type;location;lat;lon;timestamp;temperature;humidity
67354;SHT30;54238;52.278;21.056;2024-01-30T00:01:32;2.32;75.23
67354;SHT30;54238;52.278;21.056;2024-01-30T00:04:02;2.31;75.34
67354;SHT30;54238;52.278;21.056;2024-01-30T00:06:32;2.30;75.40
67354;SHT30;54238;52.278;21.056;2024-01-30T00:09:04;2.30;75.39
67354;SHT30;54238;52.278;21.056;2024-01-30T00:11:36;2.29;75.45
67354;SHT30;54238;52.278;21.056;2024-01-30T00:14:06;2.30;75.37
67354;SHT30;54238;52.278;21.056;2024-01-30T00:16:35;2.27;75.47
67354;SHT30;54238;52.278;21.056;2024-01-30T00:19:07;2.26;75.54
67354;SHT30;54238;52.278;21.056;2024-01-30T00:21:41;2.24;75.71
67354;SHT30;54238;52.278;21.056;2024-01-30T00:24:15;2.23;75.65
67354;SHT30;54238;52.278;21.056;2024-01-30T00:26:47;2.20;75.66
67354;SHT30;54238;52.278;21.056;2024-01-30T00:29:24;2.21;75.70
67354;SHT30;54238;52.278;21.056;2024-01-30T00:31:56;2.19;75.72
67354;SHT30;54238;52.278;21.056;2024-01-30T00:34:23;2.19;75.61
67354;SHT30;54238;52.278;21.056;2024-01-30T00:36:57;2.18;75.65
67354;SHT30;54238;52.278;21.056;2024-01-30T00:39:24;2.17;75.65
67354;SHT30;54238;52.278;21.056;2024-01-30T00:41:54;2.18;75.68
67354;SHT30;54238;52.278;21.056;2024-01-30T00:44:24;2.17;75.56
67354;SHT30;54238;52.278;21.056;2024-01-30T00:46:56;2.18;75.41
67354;SHT30;54238;52.278;21.056;2024-01-30T00:49:27;2.18;75.44
67354;SHT30;54238;52.278;21.056;2024-01-30T00:51:54;2.17;75.45
67354;SHT30;54238;52.278;21.056;2024-01-30T00:54:23;2.15;75.48
67354;SHT30;54238;52.278;21.056;2024-01-30T00:56:51;2.15;75.45
67354;SHT30;54238;52.278;21.056;2024-01-30T00:59:17;2.14;75.42
67354;SHT30;54238;52.278;21.056;2024-01-30T01:01:45;2.15;75.42
67354;SHT30;54238;52.278;21.056;2024-01-30T01:04:12;2.14;75.40
67354;SHT30;54238;52.278;21.056;2024-01-30T01:06:42;2.13;75.51
67354;SHT30;54238;52.278;21.056;2024-01-30T01:09:14;2.13;75.37
67354;SHT30;54238;52.278;21.056;2024-01-30T01:11:41;2.15;75.36
67354;SHT30;54238;52.278;21.056;2024-01-30T01:14:10;2.15;75.24
67354;SHT30;54238;52.278;21.056;2024-01-30T01:16:42;2.15;75.19
67354;SHT30;54238;52.278;21.056;2024-01-30T01:19:14;2.14;75.13
67354;SHT30;54238;52.278;21.056;2024-01-30T01:21:45;2.13;75.10
67354;SHT30;54238;52.278;21.056;2024-01-30T01:24:15;2.14;75.10
67354;SHT30;54238;52.278;21.056;2024-01-30T01:26:42;2.14;75.10
67354;SHT30;54238;52.278;21.056;2024-01-30T01:29:11;2.16;75.13
67354;SHT30;54238;52.278;21.056;2024-01-30T01:31:39;2.17;75.12
67354;SHT30;54238;52.278;21.056;2024-01-30T01:34:10;2.17;75.22
67354;SHT30;54238;52.278;21.056;2024-01-30T01:36:40;2.14;75.30
67354;SHT30;54238;52.278;21.056;2024-01-30T01:39:10;2.10;75.30
67354;SHT30;54238;52.278;21.056;2024-01-30T01:41:39;2.08;75.29
67354;SHT30;54238;52.278;21.056;2024-01-30T01:44:11;2.05;75.39
67354;SHT30;54238;52.278;21.056;2024-01-30T01:46:38;2.04;75.49
67354;SHT30;54238;52.278;21.056;2024-01-30T01:49:05;2.01;75.56
67354;SHT30;54238;52.278;21.056;2024-01-30T01:51:41;1.99;75.55
67354;SHT30;54238;52.278;21.056;2024-01-30T01:54:12;1.97;75.62
67354;SHT30;54238;52.278;21.056;2024-01-30T01:56:43;1.96;75.67
67354;SHT30;54238;52.278;21.056;2024-01-30T01:59:16;1.94;75.72
67354;SHT30;54238;52.278;21.056;2024-01-30T02:01:54;1.91;75.84
67354;SHT30;54238;52.278;21.056;2024-01-30T02:04:29;1.89;75.84
67354;SHT30;54238;52.278;21.056;2024-01-30T02:07:04;1.88;75.89
67354;SHT30;54238;52.278;21.056;2024-01-30T02:09:34;1.86;75.91
67354;SHT30;54238;52.278;21.056;2024-01-30T02:12:02;1.84;76.00
67354;SHT30;54238;52.278;21.056;2024-01-30T02:14:30;1.85;76.01
67354;SHT30;54238;52.278;21.056;2024-01-30T02:17:04;1.85;76.10
67354;SHT30;54238;52.278;21.056;2024-01-30T02:19:36;1.85;76.10
67354;SHT30;54238;52.278;21.056;2024-01-30T02:22:07;1.85;76.12
67354;SHT30;54238;52.278;21.056;2024-01-30T02:24:38;1.86;76.06
67354;SHT30;54238;52.278;21.056;2024-01-30T02:27:10;1.86;75.95
67354;SHT30;54238;52.278;21.056;2024-01-30T02:29:40;1.86;75.96
67354;SHT30;54238;52.278;21.056;2024-01-30T02:32:07;1.87;75.88
67354;SHT30;54238;52.278;21.056;2024-01-30T02:34:39;1.88;75.96
67354;SHT30;54238;52.278;21.056;2024-01-30T02:37:13;1.87;75.89
67354;SHT30;54238;52.278;21.056;2024-01-30T02:39:46;1.87;76.07
67354;SHT30;54238;52.278;21.056;2024-01-30T02:42:13;1.87;76.05
67354;SHT30;54238;52.278;21.056;2024-01-30T02:44:49;1.86;76.08
67354;SHT30;54238;52.278;21.056;2024-01-30T02:47:20;1.87;76.06
67354;SHT30;54238;52.278;21.056;2024-01-30T02:49:49;1.88;75.93
67354;SHT30;54238;52.278;21.056;2024-01-30T02:52:16;1.85;75.90
67354;SHT30;54238;52.278;21.056;2024-01-30T02:54:46;1.84;75.90
67354;SHT30;54238;52.278;21.056;2024-01-30T02:57:15;1.81;75.96
67354;SHT30;54238;52.278;21.056;2024-01-30T02:59:42;1.79;76.02
67354;SHT30;54238;52.278;21.056;2024-01-30T03:02:11;1.80;76.10
67354;SHT30;54238;52.278;21.056;2024-01-30T03:04:42;1.78;76.07
67354;SHT30;54238;52.278;21.056;2024-01-30T03:07:12;1.77;76.12
67354;SHT30;54238;52.278;21.056;2024-01-30T03:09:41;1.78;76.11
67354;SHT30;54238;52.278;21.056;2024-01-30T03:12:10;1.77;76.14
67354;SHT30;54238;52.278;21.056;2024-01-30T03:14:37;1.77;76.06
67354;SHT30;54238;52.278;21.056;2024-01-30T03:17:07;1.77;75.95
67354;SHT30;54238;52.278;21.056;2024-01-30T03:19:34;1.75;75.95
67354;SHT30;54238;52.278;21.056;2024-01-30T03:22:04;1.72;76.02
67354;SHT30;54238;52.278;21.056;2024-01-30T03:24:33;1.71;76.11
67354;SHT30;54238;52.278;21.056;2024-01-30T03:27:05;1.70;76.02
67354;SHT30;54238;52.278;21.056;2024-01-30T03:29:32;1.69;76.08
67354;SHT30;54238;52.278;21.056;2024-01-30T03:32:04;1.67;76.06
67354;SHT30;54238;52.278;21.056;2024-01-30T03:34:34;1.65;76.09
67354;SHT30;54238;52.278;21.056;2024-01-30T03:37:03;1.63;76.18
67354;SHT30;54238;52.278;21.056;2024-01-30T03:39:32;1.63;76.24
67354;SHT30;54238;52.278;21.056;2024-01-30T03:42:00;1.62;76.32
67354;SHT30;54238;52.278;21.056;2024-01-30T03:44:32;1.62;76.28
67354;SHT30;54238;52.278;21.056;2024-01-30T03:47:01;1.63;76.29
67354;SHT30;54238;52.278;21.056;2024-01-30T03:49:31;1.63;76.23
67354;SHT30;54238;52.278;21.056;2024-01-30T03:52:03;1.62;76.31
67354;SHT30;54238;52.278;21.056;2024-01-30T03:54:32;1.61;76.26
67354;SHT30;54238;52.278;21.056;2024-01-30T03:57:01;1.60;76.30
67354;SHT30;54238;52.278;21.056;2024-01-30T03:59:29;1.59;76.29
67354;SHT30;54238;52.278;21.056;2024-01-30T04:02:03;1.58;76.30
67354;SHT30;54238;52.278;21.056;2024-01-30T04:04:30;1.58;76.32
67354;SHT30;54238;52.278;21.056;2024-01-30T04:07:00;1.56;76.35
67354;SHT30;54238;52.278;21.056;2024-01-30T04:09:34;1.56;76.40
67354;SHT30;54238;52.278;21.056;2024-01-30T04:12:03;1.55;76.36
67354;SHT30;54238;52.278;21.056;2024-01-30T04:14:30;1.54;76.35
67354;SHT30;54238;52.278;21.056;2024-01-30T04:17:01;1.55;76.40
67354;SHT30;54238;52.278;21.056;2024-01-30T04:19:28;1.54;76.38
67354;SHT30;54238;52.278;21.056;2024-01-30T04:22:00;1.53;76.30
67354;SHT30;54238;52.278;21.056;2024-01-30T04:24:30;1.54;76.29
67354;SHT30;54238;52.278;21.056;2024-01-30T04:26:57;1.54;76.24
67354;SHT30;54238;52.278;21.056;2024-01-30T04:29:24;1.53;76.20
67354;SHT30;54238;52.278;21.056;2024-01-30T04:31:51;1.53;76.26
67354;SHT30;54238;52.278;21.056;2024-01-30T04:34:21;1.52;76.27
67354;SHT30;54238;52.278;21.056;2024-01-30T04:36:50;1.50;76.37
67354;SHT30;54238;52.278;21.056;2024-01-30T04:39:19;1.47;76.32
67354;SHT30;54238;52.278;21.056;2024-01-30T04:41:49;1.48;76.38
67354;SHT30;54238;52.278;21.056;2024-01-30T04:44:18;1.49;76.38
67354;SHT30;54238;52.278;21.056;2024-01-30T04:46:50;1.49;76.30
67354;SHT30;54238;52.278;21.056;2024-01-30T04:49:22;1.48;76.34
67354;SHT30;54238;52.278;21.056;2024-01-30T04:51:52;1.48;76.30
67354;SHT30;54238;52.278;21.056;2024-01-30T04:54:21;1.48;76.32
67354;SHT30;54238;52.278;21.056;2024-01-30T04:56:48;1.48;76.34
67354;SHT30;54238;52.278;21.056;2024-01-30T04:59:16;1.47;76.29
67354;SHT30;54238;52.278;21.056;2024-01-30T05:01:43;1.45;76.32
67354;SHT30;54238;52.278;21.056;2024-01-30T05:04:17;1.44;76.40
67354;SHT30;54238;52.278;21.056;2024-01-30T05:06:50;1.43;76.40
67354;SHT30;54238;52.278;21.056;2024-01-30T05:09:20;1.40;76.39
67354;SHT30;54238;52.278;21.056;2024-01-30T05:11:47;1.41;76.40
67354;SHT30;54238;52.278;21.056;2024-01-30T05:14:17;1.41;76.40
67354;SHT30;54238;52.278;21.056;2024-01-30T05:16:44;1.42;76.33
67354;SHT30;54238;52.278;21.056;2024-01-30T05:19:15;1.42;76.33
67354;SHT30;54238;52.278;21.056;2024-01-30T05:21:47;1.43;76.29
67354;SHT30;54238;52.278;21.056;2024-01-30T05:24:17;1.43;76.26
67354;SHT30;54238;52.278;21.056;2024-01-30T05:26:47;1.43;76.22
67354;SHT30;54238;52.278;21.056;2024-01-30T05:29:18;1.43;76.20
67354;SHT30;54238;52.278;21.056;2024-01-30T05:31:47;1.43;76.13
67354;SHT30;54238;52.278;21.056;2024-01-30T05:34:18;1.42;76.12
67354;SHT30;54238;52.278;21.056;2024-01-30T05:36:50;1.43;76.15
67354;SHT30;54238;52.278;21.056;2024-01-30T05:39:17;1.45;76.10
67354;SHT30;54238;52.278;21.056;2024-01-30T05:41:44;1.46;76.02
67354;SHT30;54238;52.278;21.056;2024-01-30T05:44:11;1.46;76.00
67354;SHT30;54238;52.278;21.056;2024-01-30T05:46:40;1.48;75.99
67354;SHT30;54238;52.278;21.056;2024-01-30T05:49:08;1.47;75.95
67354;SHT30;54238;52.278;21.056;2024-01-30T05:51:34;1.47;75.89
67354;SHT30;54238;52.278;21.056;2024-01-30T05:54:09;1.48;75.83
67354;SHT30;54238;52.278;21.056;2024-01-30T05:56:43;1.47;75.87
67354;SHT30;54238;52.278;21.056;2024-01-30T05:59:12;1.48;75.84
67354;SHT30;54238;52.278;21.056;2024-01-30T06:01:45;1.47;75.79
67354;SHT30;54238;52.278;21.056;2024-01-30T06:04:16;1.46;75.73
67354;SHT30;54238;52.278;21.056;2024-01-30T06:06:48;1.46;75.70
67354;SHT30;54238;52.278;21.056;2024-01-30T06:09:15;1.46;75.70
67354;SHT30;54238;52.278;21.056;2024-01-30T06:11:42;1.47;75.68
67354;SHT30;54238;52.278;21.056;2024-01-30T06:14:09;1.47;75.63
67354;SHT30;54238;52.278;21.056;2024-01-30T06:16:36;1.47;75.60
67354;SHT30;54238;52.278;21.056;2024-01-30T06:19:05;1.45;75.61
67354;SHT30;54238;52.278;21.056;2024-01-30T06:21:32;1.44;75.61
67354;SHT30;54238;52.278;21.056;2024-01-30T06:24:03;1.43;75.60
67354;SHT30;54238;52.278;21.056;2024-01-30T06:26:35;1.43;75.60
67354;SHT30;54238;52.278;21.056;2024-01-30T06:29:04;1.44;75.54
67354;SHT30;54238;52.278;21.056;2024-01-30T06:31:39;1.44;75.51
67354;SHT30;54238;52.278;21.056;2024-01-30T06:34:12;1.45;75.48
67354;SHT30;54238;52.278;21.056;2024-01-30T06:36:39;1.45;75.46
67354;SHT30;54238;52.278;21.056;2024-01-30T06:39:09;1.46;75.44
67354;SHT30;54238;52.278;21.056;2024-01-30T06:41:39;1.48;75.36
67354;SHT30;54238;52.278;21.056;2024-01-30T06:44:06;1.50;75.30
67354;SHT30;54238;52.278;21.056;2024-01-30T06:46:35;1.53;75.25
67354;SHT30;54238;52.278;21.056;2024-01-30T06:49:04;1.55;75.14
67354;SHT30;54238;52.278;21.056;2024-01-30T06:51:34;1.57;75.07
67354;SHT30;54238;52.278;21.056;2024-01-30T06:54:03;1.58;74.93
67354;SHT30;54238;52.278;21.056;2024-01-30T06:56:35;1.60;74.91
67354;SHT30;54238;52.278;21.056;2024-01-30T06:59:04;1.63;74.88
67354;SHT30;54238;52.278;21.056;2024-01-30T07:01:34;1.67;74.76
67354;SHT30;54238;52.278;21.056;2024-01-30T07:04:07;1.70;74.64
67354;SHT30;54238;52.278;21.056;2024-01-30T07:06:34;1.72;74.53
67354;SHT30;54238;52.278;21.056;2024-01-30T07:09:03;1.73;74.46
67354;SHT30;54238;52.278;21.056;2024-01-30T07:11:35;1.76;74.39
67354;SHT30;54238;52.278;21.056;2024-01-30T07:14:05;1.77;74.28
67354;SHT30;54238;52.278;21.056;2024-01-30T07:16:35;1.81;74.21
67354;SHT30;54238;52.278;21.056;2024-01-30T07:19:02;1.84;74.08
67354;SHT30;54238;52.278;21.056;2024-01-30T07:21:30;1.86;74.00
67354;SHT30;54238;52.278;21.056;2024-01-30T07:24:04;1.90;73.98
67354;SHT30;54238;52.278;21.056;2024-01-30T07:26:33;1.96;73.87
67354;SHT30;54238;52.278;21.056;2024-01-30T07:29:02;2.01;73.68
67354;SHT30;54238;52.278;21.056;2024-01-30T07:31:39;2.06;73.58
67354;SHT30;54238;52.278;21.056;2024-01-30T07:34:09;2.11;73.48
67354;SHT30;54238;52.278;21.056;2024-01-30T07:36:39;2.18;73.31
67354;SHT30;54238;52.278;21.056;2024-01-30T07:39:12;2.23;73.15
67354;SHT30;54238;52.278;21.056;2024-01-30T07:41:42;2.28;73.01
67354;SHT30;54238;52.278;21.056;2024-01-30T07:44:11;2.37;72.97
67354;SHT30;54238;52.278;21.056;2024-01-30T07:46:39;2.43;72.73
67354;SHT30;54238;52.278;21.056;2024-01-30T07:49:06;2.52;72.51
67354;SHT30;54238;52.278;21.056;2024-01-30T07:51:36;2.60;72.36
67354;SHT30;54238;52.278;21.056;2024-01-30T07:54:08;2.68;72.11
67354;SHT30;54238;52.278;21.056;2024-01-30T07:56:37;2.75;71.91
67354;SHT30;54238;52.278;21.056;2024-01-30T07:59:09;2.81;71.62
67354;SHT30;54238;52.278;21.056;2024-01-30T08:01:39;2.85;71.50
67354;SHT30;54238;52.278;21.056;2024-01-30T08:04:11;2.91;71.23
67354;SHT30;54238;52.278;21.056;2024-01-30T08:06:41;2.99;71.07
67354;SHT30;54238;52.278;21.056;2024-01-30T08:09:10;3.05;70.96
67354;SHT30;54238;52.278;21.056;2024-01-30T08:11:37;3.12;70.53
67354;SHT30;54238;52.278;21.056;2024-01-30T08:14:11;3.18;70.44
67354;SHT30;54238;52.278;21.056;2024-01-30T08:16:41;3.24;70.22
67354;SHT30;54238;52.278;21.056;2024-01-30T08:19:08;3.33;70.00
67354;SHT30;54238;52.278;21.056;2024-01-30T08:21:37;3.41;69.62
67354;SHT30;54238;52.278;21.056;2024-01-30T08:24:08;3.50;69.37
67354;SHT30;54238;52.278;21.056;2024-01-30T08:26:35;3.61;69.06
67354;SHT30;54238;52.278;21.056;2024-01-30T08:29:05;3.75;68.58
67354;SHT30;54238;52.278;21.056;2024-01-30T08:31:34;3.90;68.39
67354;SHT30;54238;52.278;21.056;2024-01-30T08:34:01;4.07;67.91
67354;SHT30;54238;52.278;21.056;2024-01-30T08:36:28;4.26;67.22
67354;SHT30;54238;52.278;21.056;2024-01-30T08:38:55;4.44;66.75
67354;SHT30;54238;52.278;21.056;2024-01-30T08:41:29;4.58;66.19
67354;SHT30;54238;52.278;21.056;2024-01-30T08:43:58;4.72;65.70
67354;SHT30;54238;52.278;21.056;2024-01-30T08:46:28;4.88;65.38
67354;SHT30;54238;52.278;21.056;2024-01-30T08:48:57;5.05;64.57
67354;SHT30;54238;52.278;21.056;2024-01-30T08:51:26;5.23;64.00
67354;SHT30;54238;52.278;21.056;2024-01-30T08:53:56;5.41;63.31
67354;SHT30;54238;52.278;21.056;2024-01-30T08:56:23;5.63;62.63
67354;SHT30;54238;52.278;21.056;2024-01-30T08:58:53;5.87;62.40
67354;SHT30;54238;52.278;21.056;2024-01-30T09:01:19;6.10;61.78
67354;SHT30;54238;52.278;21.056;2024-01-30T09:03:49;6.35;61.01
67354;SHT30;54238;52.278;21.056;2024-01-30T09:06:20;6.59;59.93
67354;SHT30;54238;52.278;21.056;2024-01-30T09:08:52;6.90;59.42
67354;SHT30;54238;52.278;21.056;2024-01-30T09:11:24;7.21;58.72
67354;SHT30;54238;52.278;21.056;2024-01-30T09:13:50;7.59;57.73
67354;SHT30;54238;52.278;21.056;2024-01-30T09:16:17;7.89;56.06
67354;SHT30;54238;52.278;21.056;2024-01-30T09:18:48;8.14;55.17
67354;SHT30;54238;52.278;21.056;2024-01-30T09:21:15;8.24;54.25
67354;SHT30;54238;52.278;21.056;2024-01-30T09:23:42;8.42;54.11
67354;SHT30;54238;52.278;21.056;2024-01-30T09:26:09;8.76;53.27
67354;SHT30;54238;52.278;21.056;2024-01-30T09:28:39;9.12;52.34
67354;SHT30;54238;52.278;21.056;2024-01-30T09:31:10;9.43;52.24
67354;SHT30;54238;52.278;21.056;2024-01-30T09:33:41;9.78;51.28
67354;SHT30;54238;52.278;21.056;2024-01-30T09:36:10;10.18;50.45
67354;SHT30;54238;52.278;21.056;2024-01-30T09:38:37;10.67;49.10
67354;SHT30;54238;52.278;21.056;2024-01-30T09:41:05;11.15;47.85
67354;SHT30;54238;52.278;21.056;2024-01-30T09:43:39;11.64;47.62
67354;SHT30;54238;52.278;21.056;2024-01-30T09:46:12;12.15;46.29
67354;SHT30;54238;52.278;21.056;2024-01-30T09:48:47;12.56;44.66
67354;SHT30;54238;52.278;21.056;2024-01-30T09:51:15;12.97;44.68
67354;SHT30;54238;52.278;21.056;2024-01-30T09:53:49;13.46;43.24
67354;SHT30;54238;52.278;21.056;2024-01-30T09:56:17;13.91;42.37
67354;SHT30;54238;52.278;21.056;2024-01-30T09:58:45;14.23;40.60
67354;SHT30;54238;52.278;21.056;2024-01-30T10:01:15;14.62;41.07
67354;SHT30;54238;52.278;21.056;2024-01-30T10:03:49;15.05;40.00
67354;SHT30;54238;52.278;21.056;2024-01-30T10:06:19;15.22;39.17
67354;SHT30;54238;52.278;21.056;2024-01-30T10:08:53;15.46;38.16
67354;SHT30;54238;52.278;21.056;2024-01-30T10:11:22;15.77;37.34
67354;SHT30;54238;52.278;21.056;2024-01-30T10:13:50;16.15;36.44
67354;SHT30;54238;52.278;21.056;2024-01-30T10:16:19;16.45;36.71
67354;SHT30;54238;52.278;21.056;2024-01-30T10:18:48;16.66;36.00
67354;SHT30;54238;52.278;21.056;2024-01-30T10:21:22;16.97;35.29
67354;SHT30;54238;52.278;21.056;2024-01-30T10:23:52;17.32;34.87
67354;SHT30;54238;52.278;21.056;2024-01-30T10:26:27;17.67;34.02
67354;SHT30;54238;52.278;21.056;2024-01-30T10:29:04;17.89;33.61
67354;SHT30;54238;52.278;21.056;2024-01-30T10:31:34;18.07;32.56
67354;SHT30;54238;52.278;21.056;2024-01-30T10:34:01;18.29;32.35
67354;SHT30;54238;52.278;21.056;2024-01-30T10:36:28;18.52;32.80
67354;SHT30;54238;52.278;21.056;2024-01-30T10:38:59;18.76;31.54
67354;SHT30;54238;52.278;21.056;2024-01-30T10:41:31;18.84;30.52
67354;SHT30;54238;52.278;21.056;2024-01-30T10:44:12;18.77;30.52
67354;SHT30;54238;52.278;21.056;2024-01-30T10:46:50;18.96;30.79
67354;SHT30;54238;52.278;21.056;2024-01-30T10:49:27;19.27;30.35
67354;SHT30;54238;52.278;21.056;2024-01-30T10:52:08;19.46;30.12
67354;SHT30;54238;52.278;21.056;2024-01-30T10:54:37;19.63;29.44
67354;SHT30;54238;52.278;21.056;2024-01-30T10:57:04;19.71;28.92
67354;SHT30;54238;52.278;21.056;2024-01-30T10:59:35;19.76;29.42
67354;SHT30;54238;52.278;21.056;2024-01-30T11:02:09;20.01;28.82
67354;SHT30;54238;52.278;21.056;2024-01-30T11:04:42;20.30;28.81
67354;SHT30;54238;52.278;21.056;2024-01-30T11:07:18;20.75;28.25
67354;SHT30;54238;52.278;21.056;2024-01-30T11:09:52;21.07;27.73
67354;SHT30;54238;52.278;21.056;2024-01-30T11:12:32;21.31;27.46
67354;SHT30;54238;52.278;21.056;2024-01-30T11:15:10;21.33;27.38
67354;SHT30;54238;52.278;21.056;2024-01-30T11:20:29;21.65;26.54
67354;SHT30;54238;52.278;21.056;2024-01-30T11:23:02;21.88;26.59
67354;SHT30;54238;52.278;21.056;2024-01-30T11:25:37;22.14;26.33
67354;SHT30;54238;52.278;21.056;2024-01-30T11:28:05;22.18;25.38
67354;SHT30;54238;52.278;21.056;2024-01-30T11:30:43;22.27;25.73
67354;SHT30;54238;52.278;21.056;2024-01-30T11:33:27;22.44;25.44
67354;SHT30;54238;52.278;21.056;2024-01-30T11:36:07;22.52;25.27
67354;SHT30;54238;52.278;21.056;2024-01-30T11:38:40;22.65;25.10
67354;SHT30;54238;52.278;21.056;2024-01-30T11:41:16;22.92;25.11
67354;SHT30;54238;52.278;21.056;2024-01-30T11:43:52;23.13;25.14
67354;SHT30;54238;52.278;21.056;2024-01-30T11:46:24;23.22;24.23
67354;SHT30;54238;52.278;21.056;2024-01-30T11:48:55;23.20;24.12
67354;SHT30;54238;52.278;21.056;2024-01-30T11:51:25;23.35;24.50
67354;SHT30;54238;52.278;21.056;2024-01-30T11:53:53;23.43;23.95
67354;SHT30;54238;52.278;21.056;2024-01-30T11:56:23;23.33;23.64
67354;SHT30;54238;52.278;21.056;2024-01-30T11:58:52;23.20;24.09
67354;SHT30;54238;52.278;21.056;2024-01-30T12:01:25;23.21;24.36
67354;SHT30;54238;52.278;21.056;2024-01-30T12:03:54;23.26;24.45
67354;SHT30;54238;52.278;21.056;2024-01-30T12:06:27;23.43;24.02
67354;SHT30;54238;52.278;21.056;2024-01-30T12:09:01;23.48;23.60
67354;SHT30;54238;52.278;21.056;2024-01-30T12:11:46;23.20;23.84
67354;SHT30;54238;52.278;21.056;2024-01-30T12:14:17;23.25;23.66
67354;SHT30;54238;52.278;21.056;2024-01-30T12:16:49;23.15;23.03
67354;SHT30;54238;52.278;21.056;2024-01-30T12:19:25;22.93;23.70
67354;SHT30;54238;52.278;21.056;2024-01-30T12:21:58;22.88;23.88
67354;SHT30;54238;52.278;21.056;2024-01-30T12:24:31;23.06;24.03
67354;SHT30;54238;52.278;21.056;2024-01-30T12:26:59;23.33;24.04
67354;SHT30;54238;52.278;21.056;2024-01-30T12:29:31;23.56;23.61
67354;SHT30;54238;52.278;21.056;2024-01-30T12:31:59;23.87;23.33
67354;SHT30;54238;52.278;21.056;2024-01-30T12:34:30;23.97;22.94
67354;SHT30;54238;52.278;21.056;2024-01-30T12:36:59;23.96;22.56
67354;SHT30;54238;52.278;21.056;2024-01-30T12:39:26;23.91;23.02
67354;SHT30;54238;52.278;21.056;2024-01-30T12:41:57;23.93;23.06
67354;SHT30;54238;52.278;21.056;2024-01-30T12:44:27;23.97;22.92
67354;SHT30;54238;52.278;21.056;2024-01-30T12:46:58;23.97;22.76
67354;SHT30;54238;52.278;21.056;2024-01-30T12:49:33;23.96;22.28
67354;SHT30;54238;52.278;21.056;2024-01-30T12:52:00;23.94;22.79
67354;SHT30;54238;52.278;21.056;2024-01-30T12:54:30;23.98;23.08
67354;SHT30;54238;52.278;21.056;2024-01-30T12:57:00;24.08;22.96
67354;SHT30;54238;52.278;21.056;2024-01-30T12:59:29;24.11;22.45
67354;SHT30;54238;52.278;21.056;2024-01-30T13:01:56;23.90;22.19
67354;SHT30;54238;52.278;21.056;2024-01-30T13:04:32;23.80;22.66
67354;SHT30;54238;52.278;21.056;2024-01-30T13:07:04;23.66;22.92
67354;SHT30;54238;52.278;21.056;2024-01-30T13:09:36;23.72;23.03
67354;SHT30;54238;52.278;21.056;2024-01-30T13:12:05;23.57;22.72
67354;SHT30;54238;52.278;21.056;2024-01-30T13:14:35;23.45;22.96
67354;SHT30;54238;52.278;21.056;2024-01-30T13:17:07;23.34;23.08
67354;SHT30;54238;52.278;21.056;2024-01-30T13:19:34;23.47;23.12
67354;SHT30;54238;52.278;21.056;2024-01-30T13:22:01;23.46;23.21
67354;SHT30;54238;52.278;21.056;2024-01-30T13:24:31;23.24;23.13
67354;SHT30;54238;52.278;21.056;2024-01-30T13:27:02;23.18;23.27
67354;SHT30;54238;52.278;21.056;2024-01-30T13:29:36;23.15;23.24
67354;SHT30;54238;52.278;21.056;2024-01-30T13:32:03;23.33;23.14
67354;SHT30;54238;52.278;21.056;2024-01-30T13:34:36;23.46;22.98
67354;SHT30;54238;52.278;21.056;2024-01-30T13:37:07;23.50;22.64
67354;SHT30;54238;52.278;21.056;2024-01-30T13:39:36;23.24;22.67
67354;SHT30;54238;52.278;21.056;2024-01-30T13:42:05;22.72;23.18
67354;SHT30;54238;52.278;21.056;2024-01-30T13:44:37;21.88;24.04
67354;SHT30;54238;52.278;21.056;2024-01-30T13:47:06;21.53;24.25
67354;SHT30;54238;52.278;21.056;2024-01-30T13:49:33;21.47;24.54
67354;SHT30;54238;52.278;21.056;2024-01-30T13:52:03;21.36;24.62
67354;SHT30;54238;52.278;21.056;2024-01-30T13:54:35;21.05;25.02
67354;SHT30;54238;52.278;21.056;2024-01-30T13:57:04;20.62;25.47
67354;SHT30;54238;52.278;21.056;2024-01-30T13:59:35;19.99;25.80
67354;SHT30;54238;52.278;21.056;2024-01-30T14:02:02;19.32;26.53
67354;SHT30;54238;52.278;21.056;2024-01-30T14:04:29;19.10;27.05
67354;SHT30;54238;52.278;21.056;2024-01-30T14:06:56;19.20;27.19
67354;SHT30;54238;52.278;21.056;2024-01-30T14:09:23;19.32;27.47
67354;SHT30;54238;52.278;21.056;2024-01-30T14:11:54;19.28;27.48
67354;SHT30;54238;52.278;21.056;2024-01-30T14:14:24;19.25;27.29
67354;SHT30;54238;52.278;21.056;2024-01-30T14:16:55;19.05;27.39
67354;SHT30;54238;52.278;21.056;2024-01-30T14:19:22;18.94;27.58
67354;SHT30;54238;52.278;21.056;2024-01-30T14:21:54;18.85;27.52
67354;SHT30;54238;52.278;21.056;2024-01-30T14:24:23;18.63;27.61
67354;SHT30;54238;52.278;21.056;2024-01-30T14:26:57;18.38;28.02
67354;SHT30;54238;52.278;21.056;2024-01-30T14:29:27;18.06;28.21
67354;SHT30;54238;52.278;21.056;2024-01-30T14:31:58;17.66;28.57
67354;SHT30;54238;52.278;21.056;2024-01-30T14:34:28;17.14;29.14
67354;SHT30;54238;52.278;21.056;2024-01-30T14:36:58;16.73;29.79
67354;SHT30;54238;52.278;21.056;2024-01-30T14:39:27;16.39;30.30
67354;SHT30;54238;52.278;21.056;2024-01-30T14:42:00;16.02;30.88
67354;SHT30;54238;52.278;21.056;2024-01-30T14:44:30;15.66;31.64
67354;SHT30;54238;52.278;21.056;2024-01-30T14:47:00;15.21;32.13
67354;SHT30;54238;52.278;21.056;2024-01-30T14:49:30;14.74;32.81
67354;SHT30;54238;52.278;21.056;2024-01-30T14:52:01;14.28;33.54
67354;SHT30;54238;52.278;21.056;2024-01-30T14:54:31;13.91;34.21
67354;SHT30;54238;52.278;21.056;2024-01-30T14:57:00;13.68;34.68
67354;SHT30;54238;52.278;21.056;2024-01-30T14:59:27;13.51;35.06
67354;SHT30;54238;52.278;21.056;2024-01-30T15:01:54;13.27;35.55
67354;SHT30;54238;52.278;21.056;2024-01-30T15:04:23;12.92;36.14
67354;SHT30;54238;52.278;21.056;2024-01-30T15:06:53;12.53;36.64
67354;SHT30;54238;52.278;21.056;2024-01-30T15:09:23;12.21;37.32
67354;SHT30;54238;52.278;21.056;2024-01-30T15:11:55;11.88;38.21
67354;SHT30;54238;52.278;21.056;2024-01-30T15:14:27;11.50;38.93
67354;SHT30;54238;52.278;21.056;2024-01-30T15:16:59;11.18;39.66
67354;SHT30;54238;52.278;21.056;2024-01-30T15:19:26;10.90;40.34
67354;SHT30;54238;52.278;21.056;2024-01-30T15:21:56;10.65;40.80
67354;SHT30;54238;52.278;21.056;2024-01-30T15:24:23;10.43;41.46
67354;SHT30;54238;52.278;21.056;2024-01-30T15:26:53;10.23;41.93
67354;SHT30;54238;52.278;21.056;2024-01-30T15:29:20;10.04;42.70
67354;SHT30;54238;52.278;21.056;2024-01-30T15:31:52;9.86;43.03
67354;SHT30;54238;52.278;21.056;2024-01-30T15:34:24;9.69;43.45
67354;SHT30;54238;52.278;21.056;2024-01-30T15:36:51;9.54;43.81
67354;SHT30;54238;52.278;21.056;2024-01-30T15:39:21;9.41;44.25
67354;SHT30;54238;52.278;21.056;2024-01-30T15:41:48;9.27;44.51
67354;SHT30;54238;52.278;21.056;2024-01-30T15:44:15;9.15;44.83
67354;SHT30;54238;52.278;21.056;2024-01-30T15:46:47;9.05;45.25